Address 0x7b33fbb878516a398dfb579a6e662a299a3d13a9 9

 
 
Txn Hash Method
Block
From
To
Value [Txn Fee]
0xd1d7bf0d821ef7c9f9720b6435eeb190a1ff000295378c5126cc41b576f52a65Swap Exact Token...241892992022-01-26 14:37:202 days 19 hrs ago0x7b33fbb878516a398dfb579a6e662a299a3d13a9OUT SushiSwap: SushiV2Router020 MATIC0.020121216112 113.892816542
0xdb49b572d9b7f18b9f34c44bfd7ad506b26c707b9c3ea1c752bcbfa67993b23cHarvest241892772022-01-26 14:36:362 days 19 hrs ago0x7b33fbb878516a398dfb579a6e662a299a3d13a9OUT 0xfb9108b960502d7b827df29391008cdf657e15690 MATIC0.016887925767 129.990114976
0x8effffa7765bc026d72101b750f7e55fbeaf23b2b50b1877d3ba7432dd3fbf7aHarvest241892692022-01-26 14:36:202 days 19 hrs ago0x7b33fbb878516a398dfb579a6e662a299a3d13a9OUT 0xfb9108b960502d7b827df29391008cdf657e15690 MATIC0.022170857473 150.804719684
0xf27b32a9bb37450be5069d20d335d525acadec7ed1feba0a0e07d57f9ef1799fSwap Exact Token...241009842022-01-24 10:03:445 days 30 mins ago0x7b33fbb878516a398dfb579a6e662a299a3d13a9OUT SushiSwap: SushiV2Router020 MATIC0.011236802763 63.604063916
0xf5d91a3cff7985bd9b016ae541b75ff21aff395f6d019d0bd25ecb079129dc6bHarvest240987632022-01-24 8:38:505 days 1 hr ago0x7b33fbb878516a398dfb579a6e662a299a3d13a9OUT 0xfb9108b960502d7b827df29391008cdf657e15690 MATIC0.005320464008 40.952793
0x0de86d4dbdf2f969a61b2dcfab3983eb678b504c78e0825cc5bc1cd2967262f2Harvest240987582022-01-24 8:38:405 days 1 hr ago0x7b33fbb878516a398dfb579a6e662a299a3d13a9OUT 0xfb9108b960502d7b827df29391008cdf657e15690 MATIC0.005911755505 40.211373554
0xfd45df73f2a17a380d830d76887554d1b2ddb232e59dd615af7ed0bc7edd325dSwap Exact Token...239542652022-01-20 17:20:538 days 17 hrs ago0x7b33fbb878516a398dfb579a6e662a299a3d13a9OUT SushiSwap: SushiV2Router020 MATIC0.017996493324 92.87649831
0x7764025ec39927e836fb4370078d2732981688c178631831429cd9d5f1eb4183Harvest239528982022-01-20 16:31:538 days 18 hrs ago0x7b33fbb878516a398dfb579a6e662a299a3d13a9OUT 0xfb9108b960502d7b827df29391008cdf657e15690 MATIC0.016733019434 128.797766534
0x2103cf578897621ef9a07cdf555515c30cec6385f2d6df3542c8335445a17295Harvest239528822022-01-20 16:31:118 days 18 hrs ago0x7b33fbb878516a398dfb579a6e662a299a3d13a9OUT 0xfb9108b960502d7b827df29391008cdf657e15690 MATIC0.013261243515 102.074736294
0x208ff55a4fb953b5bb77ee7313acbdf429b8918ace300520a0f91ee2783964a4Transfer239486322022-01-20 14:02:228 days 20 hrs ago0x7b33fbb878516a398dfb579a6e662a299a3d13a9OUT USD Coin0 MATIC0.01828324471 311.130023658
0x70e75efba8e984a4ed479ce506949412b5553f1cf4b8c6004d74340304d36046Swap Exact Token...239484022022-01-20 13:52:098 days 20 hrs ago0x7b33fbb878516a398dfb579a6e662a299a3d13a9OUT QuickSwap: Router0 MATIC0.023085098171 214.093855631
0xff498880d369d5778c4d851aac7b3daabbf99c5cae3f084134b120d9218c90faSwap Exact Token...239482292022-01-20 13:46:158 days 20 hrs ago0x7b33fbb878516a398dfb579a6e662a299a3d13a9OUT QuickSwap: Router0 MATIC0.084972973164 459.24882538
0xa7aeddbc8ec953f6aeb6ffb3a43beae31375642be114ea9ac5e1ac7a19d8a447Approve239482112022-01-20 13:45:358 days 20 hrs ago0x7b33fbb878516a398dfb579a6e662a299a3d13a9OUT 0x059eb35959b5ad5a37ce9198726cab84824fd6900 MATIC0.027799182918 533.86048007
0x7e1184f9594d721c3aba605883eff4c959386173b52262c63b8c2486c0959888Swap Exact Token...238257092022-01-17 12:15:2111 days 22 hrs ago0x7b33fbb878516a398dfb579a6e662a299a3d13a9OUT SushiSwap: SushiV2Router020 MATIC0.0081660645
0xc1aadca4d1fb53028e6e5cd050903faa8443fdd87cbddf0d165e30cda2b35470Harvest238256802022-01-17 12:14:2311 days 22 hrs ago0x7b33fbb878516a398dfb579a6e662a299a3d13a9OUT 0xfb9108b960502d7b827df29391008cdf657e15690 MATIC0.0064958550
0x3844e733bb76d4bfa3ad9453eaab1c15397e1b066e31e7ad40d89374e90540f7Harvest238256762022-01-17 12:14:1511 days 22 hrs ago0x7b33fbb878516a398dfb579a6e662a299a3d13a9OUT 0xfb9108b960502d7b827df29391008cdf657e15690 MATIC0.0074714039450.820000001
0x4e10b8c635e43b820e6aa7ca02dc3debca5e33a72c5d3c18f2f25c6cc4398b58Swap Exact Token...237228822022-01-14 21:15:0414 days 13 hrs ago0x7b33fbb878516a398dfb579a6e662a299a3d13a9OUT SushiSwap: SushiV2Router020 MATIC0.0049940430
0xdbacef75ccd51de27758345715a05d0a4692bdc4cc569a60123184f6a087c07bHarvest237214472022-01-14 20:23:3314 days 14 hrs ago0x7b33fbb878516a398dfb579a6e662a299a3d13a9OUT 0xfb9108b960502d7b827df29391008cdf657e15690 MATIC0.0038975130
0x96cf476b13bf12a08a3d4b5bcfb7bd8ae917b409a49e709459bfcc731a430120Harvest237214372022-01-14 20:23:1314 days 14 hrs ago0x7b33fbb878516a398dfb579a6e662a299a3d13a9OUT 0xfb9108b960502d7b827df29391008cdf657e15690 MATIC0.0044105130
0x90c6b74e221efc51cd5c6b94102773dcdd9fca3326d79c291563c8a00cf87d78Swap Exact Token...236011602022-01-11 16:50:5317 days 17 hrs ago0x7b33fbb878516a398dfb579a6e662a299a3d13a9OUT SushiSwap: SushiV2Router020 MATIC0.008323450
0xc1f9ca3b75c572815151bd925fa0c6f876187912244ebf60798a2444a939543cHarvest236010122022-01-11 16:45:4517 days 17 hrs ago0x7b33fbb878516a398dfb579a6e662a299a3d13a9OUT 0xfb9108b960502d7b827df29391008cdf657e15690 MATIC0.0038975130.000000001
0xa20e484b209f2723c71595e1af0299b466e801fa841d6eb00e862e28b999d537Harvest236010002022-01-11 16:45:2117 days 17 hrs ago0x7b33fbb878516a398dfb579a6e662a299a3d13a9OUT 0xfb9108b960502d7b827df29391008cdf657e15690 MATIC0.0044105130.000000001
0xc1ae4759c10141e922f292a22ed28292679dee6de290aecb169197f729c302acSwap Exact Token...234792682022-01-08 12:24:2520 days 22 hrs ago0x7b33fbb878516a398dfb579a6e662a299a3d13a9OUT SushiSwap: SushiV2Router020 MATIC0.0072176445
0x687e327aa5878cf2e7ee9f9643cd5cc59b85ba07ad533b5f8cb9bed69b4d50a9Harvest234792352022-01-08 12:23:1920 days 22 hrs ago0x7b33fbb878516a398dfb579a6e662a299a3d13a9OUT 0xfb9108b960502d7b827df29391008cdf657e15690 MATIC0.00584626545
0x5f457dbb1396ccb76c628e1be2343cc6a79ed9d13619ea3b9e77135c7857ba14Harvest234792242022-01-08 12:22:5320 days 22 hrs ago0x7b33fbb878516a398dfb579a6e662a299a3d13a9OUT 0xfb9108b960502d7b827df29391008cdf657e15690 MATIC0.0044105130
[ Download CSV Export 
Parent Txn Hash Block From To Value
Loading

Contract Name:
0 MATIC

Compiler Version
0

Optimization Enabled:
0 MATIC

Other Settings:
-NA-
Block Transaction Gas Used Reward
Age Block Fee Address BC Fee Address Voting Power Jailed Incoming
Block Uncle Number Difficulty Gas Used Reward
Loading
Loading
Make sure to use the "Vote Down" button for any spammy posts, and the "Vote Up" for interesting conversations.